CheckWX is a tool to help pilots better visualize weather data.  It is not intended as a substitute for an official pre-flight weather briefing.

22:42:32 UTC

EGUB METAR
RAF Benson Airport
Benson, United Kingdom
Current

53 mins ago

EGUB 062150Z AUTO 24007KT 9999 // NCD 07/05 Q1008
Observed
Dec-6 @ 21:50 UTC
Wind
  • 240° at 7 KTS
Visibility
10,000+ meters
Flight Rules
VFR
Cloud Levels
  • Clear skies
Temperature
C / 45°F
Dewpoint
C / 41°F
Humidity
87%
Altimeter
29.76" Hg
Pressure
1007.92 hPa
Previous

2 hours ago

EGUB 062050Z AUTO 21005KT 9999 // SCT029/// 08/05 Q1007
Observed
Dec-6 @ 20:50 UTC
Wind
  • 210° at 5 KTS
Visibility
10,000+ meters
Flight Rules
VFR
Cloud Levels
  • Scattered at 2,900' AGL
Temperature
C / 46°F
Dewpoint
C / 41°F
Humidity
82%
Altimeter
29.73" Hg
Pressure
1006.92 hPa
Previous

3 hours ago

EGUB 061950Z AUTO 27010KT 9999 // BKN034/// SCT044/// BKN050/// 10/06 Q1007
Observed
Dec-6 @ 19:50 UTC
Wind
  • 270° at 10 KTS
Visibility
10,000+ meters
Flight Rules
VFR
Cloud Levels
  • Broken at 3,400' AGL
  • Scattered at 4,400' AGL
  • Broken at 5,000' AGL
Temperature
10°C / 50°F
Dewpoint
C / 43°F
Humidity
76%
Altimeter
29.73" Hg
Pressure
1006.92 hPa